Airport Name : Zanjan

Other Name : Zanjan

ICAO : OITZ

IATA : JWN

FAA :

Latitude : 36.773783

Longitude : 48.359114

Country : Iran

Local Date and Time : 23 Sep 2021 15:26

 

TAF (Terminal Aerodrome Forecast)

 

METAR (METeorological Aerodrome Report)

OITZ 231100Z 22014KT CAVOK 29/04 Q1009 A2980

OITZ 231000Z 21012KT CAVOK 28/03 Q1009 A2981

OITZ 230900Z 18006KT CAVOK 26/04 Q1010 A2984

OITZ 230800Z 00000KT CAVOK 26/02 Q1010 A2985

To Charter a Jet Click here.